sensor_id;sensor_type;location;lat;lon;timestamp;P1;durP1;ratioP1;P2;durP2;ratioP2
8938;SDS011;4504;48.810;9.172;2023-05-07T00:00:47;115.60;;;4.07;;
8938;SDS011;4504;48.810;9.172;2023-05-07T00:03:17;118.60;;;4.33;;
8938;SDS011;4504;48.810;9.172;2023-05-07T00:05:45;114.60;;;4.07;;
8938;SDS011;4504;48.810;9.172;2023-05-07T00:08:13;114.00;;;3.97;;
8938;SDS011;4504;48.810;9.172;2023-05-07T00:10:40;113.80;;;3.93;;
8938;SDS011;4504;48.810;9.172;2023-05-07T00:13:07;114.10;;;4.17;;
8938;SDS011;4504;48.810;9.172;2023-05-07T00:15:34;114.20;;;3.83;;
8938;SDS011;4504;48.810;9.172;2023-05-07T00:18:01;115.07;;;3.97;;
8938;SDS011;4504;48.810;9.172;2023-05-07T00:20:29;115.73;;;4.43;;
8938;SDS011;4504;48.810;9.172;2023-05-07T00:22:56;113.87;;;3.70;;
8938;SDS011;4504;48.810;9.172;2023-05-07T00:25:23;114.80;;;3.80;;
8938;SDS011;4504;48.810;9.172;2023-05-07T00:27:50;114.50;;;4.07;;
8938;SDS011;4504;48.810;9.172;2023-05-07T00:30:17;115.90;;;3.65;;
8938;SDS011;4504;48.810;9.172;2023-05-07T00:32:45;115.40;;;3.90;;
8938;SDS011;4504;48.810;9.172;2023-05-07T00:35:14;115.53;;;3.70;;
8938;SDS011;4504;48.810;9.172;2023-05-07T00:37:42;119.05;;;4.60;;
8938;SDS011;4504;48.810;9.172;2023-05-07T00:40:09;116.57;;;4.53;;
8938;SDS011;4504;48.810;9.172;2023-05-07T00:42:36;121.53;;;4.33;;
8938;SDS011;4504;48.810;9.172;2023-05-07T00:45:04;115.55;;;4.05;;
8938;SDS011;4504;48.810;9.172;2023-05-07T00:47:32;117.77;;;4.50;;
8938;SDS011;4504;48.810;9.172;2023-05-07T00:50:00;117.65;;;4.90;;
8938;SDS011;4504;48.810;9.172;2023-05-07T00:52:28;120.30;;;5.35;;
8938;SDS011;4504;48.810;9.172;2023-05-07T00:54:56;121.55;;;4.85;;
8938;SDS011;4504;48.810;9.172;2023-05-07T00:57:24;116.93;;;4.60;;
8938;SDS011;4504;48.810;9.172;2023-05-07T00:59:51;117.10;;;4.35;;
8938;SDS011;4504;48.810;9.172;2023-05-07T01:02:18;115.80;;;4.60;;
8938;SDS011;4504;48.810;9.172;2023-05-07T01:04:45;116.33;;;4.70;;
8938;SDS011;4504;48.810;9.172;2023-05-07T01:07:12;115.82;;;4.60;;
8938;SDS011;4504;48.810;9.172;2023-05-07T01:09:39;116.10;;;4.47;;
8938;SDS011;4504;48.810;9.172;2023-05-07T01:12:08;117.87;;;5.07;;
8938;SDS011;4504;48.810;9.172;2023-05-07T01:14:36;116.10;;;4.60;;
8938;SDS011;4504;48.810;9.172;2023-05-07T01:17:03;115.53;;;4.20;;
8938;SDS011;4504;48.810;9.172;2023-05-07T01:19:31;116.67;;;4.77;;
8938;SDS011;4504;48.810;9.172;2023-05-07T01:22:01;115.57;;;4.30;;
8938;SDS011;4504;48.810;9.172;2023-05-07T01:24:36;116.10;;;4.37;;
8938;SDS011;4504;48.810;9.172;2023-05-07T01:27:04;115.93;;;3.97;;
8938;SDS011;4504;48.810;9.172;2023-05-07T01:29:33;115.70;;;4.20;;
8938;SDS011;4504;48.810;9.172;2023-05-07T01:32:00;116.85;;;4.50;;
8938;SDS011;4504;48.810;9.172;2023-05-07T01:34:30;119.55;;;4.65;;
8938;SDS011;4504;48.810;9.172;2023-05-07T01:37:00;118.23;;;4.97;;
8938;SDS011;4504;48.810;9.172;2023-05-07T01:39:28;115.20;;;3.97;;
8938;SDS011;4504;48.810;9.172;2023-05-07T01:41:57;117.28;;;4.50;;
8938;SDS011;4504;48.810;9.172;2023-05-07T01:44:25;118.53;;;4.63;;
8938;SDS011;4504;48.810;9.172;2023-05-07T01:46:53;117.57;;;4.72;;
8938;SDS011;4504;48.810;9.172;2023-05-07T01:49:21;118.43;;;5.25;;
8938;SDS011;4504;48.810;9.172;2023-05-07T01:51:48;118.72;;;4.38;;
8938;SDS011;4504;48.810;9.172;2023-05-07T01:54:15;119.03;;;5.53;;
8938;SDS011;4504;48.810;9.172;2023-05-07T01:56:43;116.82;;;4.60;;
8938;SDS011;4504;48.810;9.172;2023-05-07T01:59:11;117.03;;;4.47;;
8938;SDS011;4504;48.810;9.172;2023-05-07T02:01:38;119.20;;;5.28;;
8938;SDS011;4504;48.810;9.172;2023-05-07T02:04:05;117.60;;;4.47;;
8938;SDS011;4504;48.810;9.172;2023-05-07T02:06:32;119.95;;;5.05;;
8938;SDS011;4504;48.810;9.172;2023-05-07T02:09:03;122.03;;;5.68;;
8938;SDS011;4504;48.810;9.172;2023-05-07T02:11:30;121.32;;;4.88;;
8938;SDS011;4504;48.810;9.172;2023-05-07T02:13:57;130.20;;;6.20;;
8938;SDS011;4504;48.810;9.172;2023-05-07T02:16:25;123.17;;;5.43;;
8938;SDS011;4504;48.810;9.172;2023-05-07T02:18:53;120.13;;;5.07;;
8938;SDS011;4504;48.810;9.172;2023-05-07T02:21:20;122.40;;;6.00;;
8938;SDS011;4504;48.810;9.172;2023-05-07T02:23:47;128.68;;;5.95;;
8938;SDS011;4504;48.810;9.172;2023-05-07T02:26:14;122.60;;;6.20;;
8938;SDS011;4504;48.810;9.172;2023-05-07T02:28:41;122.88;;;6.70;;
8938;SDS011;4504;48.810;9.172;2023-05-07T02:31:09;123.13;;;6.18;;
8938;SDS011;4504;48.810;9.172;2023-05-07T02:33:37;121.97;;;5.32;;
8938;SDS011;4504;48.810;9.172;2023-05-07T02:36:07;119.07;;;5.45;;
8938;SDS011;4504;48.810;9.172;2023-05-07T02:38:38;119.32;;;5.07;;
8938;SDS011;4504;48.810;9.172;2023-05-07T02:41:05;119.38;;;5.65;;
8938;SDS011;4504;48.810;9.172;2023-05-07T02:43:32;118.20;;;5.03;;
8938;SDS011;4504;48.810;9.172;2023-05-07T02:46:00;119.22;;;4.50;;
8938;SDS011;4504;48.810;9.172;2023-05-07T02:48:28;119.72;;;5.60;;
8938;SDS011;4504;48.810;9.172;2023-05-07T02:50:56;117.38;;;4.53;;
8938;SDS011;4504;48.810;9.172;2023-05-07T02:53:23;117.80;;;4.82;;
8938;SDS011;4504;48.810;9.172;2023-05-07T02:55:51;120.82;;;5.40;;
8938;SDS011;4504;48.810;9.172;2023-05-07T02:58:19;118.32;;;5.38;;
8938;SDS011;4504;48.810;9.172;2023-05-07T03:00:46;118.05;;;4.55;;
8938;SDS011;4504;48.810;9.172;2023-05-07T03:03:25;117.18;;;4.70;;
8938;SDS011;4504;48.810;9.172;2023-05-07T03:05:52;117.90;;;4.68;;
8938;SDS011;4504;48.810;9.172;2023-05-07T03:08:20;116.32;;;4.22;;
8938;SDS011;4504;48.810;9.172;2023-05-07T03:10:47;123.57;;;4.90;;
8938;SDS011;4504;48.810;9.172;2023-05-07T03:13:14;119.47;;;4.53;;
8938;SDS011;4504;48.810;9.172;2023-05-07T03:15:41;116.97;;;4.57;;
8938;SDS011;4504;48.810;9.172;2023-05-07T03:18:08;119.18;;;4.90;;
8938;SDS011;4504;48.810;9.172;2023-05-07T03:20:36;119.95;;;5.30;;
8938;SDS011;4504;48.810;9.172;2023-05-07T03:23:03;117.00;;;4.63;;
8938;SDS011;4504;48.810;9.172;2023-05-07T03:25:31;116.88;;;4.55;;
8938;SDS011;4504;48.810;9.172;2023-05-07T03:27:58;119.68;;;5.00;;
8938;SDS011;4504;48.810;9.172;2023-05-07T03:30:33;118.68;;;5.00;;
8938;SDS011;4504;48.810;9.172;2023-05-07T03:33:00;118.90;;;5.00;;
8938;SDS011;4504;48.810;9.172;2023-05-07T03:35:27;118.43;;;4.93;;
8938;SDS011;4504;48.810;9.172;2023-05-07T03:37:55;117.85;;;4.68;;
8938;SDS011;4504;48.810;9.172;2023-05-07T03:40:22;117.55;;;4.70;;
8938;SDS011;4504;48.810;9.172;2023-05-07T03:42:54;116.47;;;4.45;;
8938;SDS011;4504;48.810;9.172;2023-05-07T03:45:24;117.28;;;4.60;;
8938;SDS011;4504;48.810;9.172;2023-05-07T03:48:00;119.90;;;4.63;;
8938;SDS011;4504;48.810;9.172;2023-05-07T03:50:28;117.63;;;4.82;;
8938;SDS011;4504;48.810;9.172;2023-05-07T03:52:55;116.75;;;4.60;;
8938;SDS011;4504;48.810;9.172;2023-05-07T03:55:23;129.10;;;5.20;;
8938;SDS011;4504;48.810;9.172;2023-05-07T03:57:56;120.18;;;5.45;;
8938;SDS011;4504;48.810;9.172;2023-05-07T04:00:25;116.35;;;4.90;;
8938;SDS011;4504;48.810;9.172;2023-05-07T04:02:52;118.38;;;5.03;;
8938;SDS011;4504;48.810;9.172;2023-05-07T04:05:25;116.97;;;4.97;;
8938;SDS011;4504;48.810;9.172;2023-05-07T04:07:57;121.28;;;4.70;;
8938;SDS011;4504;48.810;9.172;2023-05-07T04:10:30;116.00;;;4.40;;
8938;SDS011;4504;48.810;9.172;2023-05-07T04:13:00;117.53;;;4.20;;
8938;SDS011;4504;48.810;9.172;2023-05-07T04:15:27;117.78;;;5.10;;
8938;SDS011;4504;48.810;9.172;2023-05-07T04:17:55;117.55;;;5.03;;
8938;SDS011;4504;48.810;9.172;2023-05-07T04:20:23;118.63;;;4.60;;
8938;SDS011;4504;48.810;9.172;2023-05-07T04:22:57;116.65;;;4.38;;
8938;SDS011;4504;48.810;9.172;2023-05-07T04:25:25;116.10;;;4.55;;
8938;SDS011;4504;48.810;9.172;2023-05-07T04:27:56;117.35;;;4.53;;
8938;SDS011;4504;48.810;9.172;2023-05-07T04:30:27;118.28;;;4.70;;
8938;SDS011;4504;48.810;9.172;2023-05-07T04:32:54;117.88;;;5.10;;
8938;SDS011;4504;48.810;9.172;2023-05-07T04:35:23;116.03;;;4.45;;
8938;SDS011;4504;48.810;9.172;2023-05-07T04:37:50;121.03;;;4.85;;
8938;SDS011;4504;48.810;9.172;2023-05-07T04:40:17;124.75;;;5.10;;
8938;SDS011;4504;48.810;9.172;2023-05-07T04:42:44;117.32;;;4.65;;
8938;SDS011;4504;48.810;9.172;2023-05-07T04:45:11;115.45;;;4.43;;
8938;SDS011;4504;48.810;9.172;2023-05-07T04:47:41;115.65;;;4.40;;
8938;SDS011;4504;48.810;9.172;2023-05-07T04:50:09;116.25;;;4.65;;
8938;SDS011;4504;48.810;9.172;2023-05-07T04:52:37;117.88;;;5.03;;
8938;SDS011;4504;48.810;9.172;2023-05-07T04:55:05;123.32;;;4.75;;
8938;SDS011;4504;48.810;9.172;2023-05-07T04:57:37;118.75;;;5.45;;
8938;SDS011;4504;48.810;9.172;2023-05-07T05:00:05;115.82;;;4.30;;
8938;SDS011;4504;48.810;9.172;2023-05-07T05:02:35;116.85;;;4.38;;
8938;SDS011;4504;48.810;9.172;2023-05-07T05:05:04;116.53;;;4.40;;
8938;SDS011;4504;48.810;9.172;2023-05-07T05:07:31;117.93;;;4.80;;
8938;SDS011;4504;48.810;9.172;2023-05-07T05:09:59;116.57;;;4.55;;
8938;SDS011;4504;48.810;9.172;2023-05-07T05:12:30;117.00;;;4.90;;
8938;SDS011;4504;48.810;9.172;2023-05-07T05:14:58;118.72;;;4.80;;
8938;SDS011;4504;48.810;9.172;2023-05-07T05:17:25;117.32;;;4.65;;
8938;SDS011;4504;48.810;9.172;2023-05-07T05:19:52;116.53;;;4.55;;
8938;SDS011;4504;48.810;9.172;2023-05-07T05:22:20;116.47;;;4.50;;
8938;SDS011;4504;48.810;9.172;2023-05-07T05:24:48;117.85;;;4.60;;
8938;SDS011;4504;48.810;9.172;2023-05-07T05:27:15;122.13;;;4.85;;
8938;SDS011;4504;48.810;9.172;2023-05-07T05:29:42;117.50;;;4.43;;
8938;SDS011;4504;48.810;9.172;2023-05-07T05:32:10;116.32;;;4.32;;
8938;SDS011;4504;48.810;9.172;2023-05-07T05:34:37;126.07;;;4.95;;
8938;SDS011;4504;48.810;9.172;2023-05-07T05:37:05;117.95;;;4.85;;
8938;SDS011;4504;48.810;9.172;2023-05-07T05:39:33;116.78;;;4.40;;
8938;SDS011;4504;48.810;9.172;2023-05-07T05:42:01;114.68;;;4.10;;
8938;SDS011;4504;48.810;9.172;2023-05-07T05:44:28;115.70;;;4.30;;
8938;SDS011;4504;48.810;9.172;2023-05-07T05:46:55;115.15;;;4.03;;
8938;SDS011;4504;48.810;9.172;2023-05-07T05:49:24;115.47;;;4.20;;
8938;SDS011;4504;48.810;9.172;2023-05-07T05:51:51;115.72;;;4.25;;
8938;SDS011;4504;48.810;9.172;2023-05-07T05:54:20;114.82;;;4.00;;
8938;SDS011;4504;48.810;9.172;2023-05-07T05:56:49;117.53;;;4.15;;
8938;SDS011;4504;48.810;9.172;2023-05-07T05:59:16;114.47;;;3.70;;
8938;SDS011;4504;48.810;9.172;2023-05-07T06:01:43;115.40;;;4.35;;
8938;SDS011;4504;48.810;9.172;2023-05-07T06:04:10;116.57;;;4.30;;
8938;SDS011;4504;48.810;9.172;2023-05-07T06:06:38;115.78;;;4.40;;
8938;SDS011;4504;48.810;9.172;2023-05-07T06:09:05;114.00;;;4.30;;
8938;SDS011;4504;48.810;9.172;2023-05-07T06:11:39;116.68;;;4.80;;
8938;SDS011;4504;48.810;9.172;2023-05-07T06:14:08;116.57;;;4.57;;
8938;SDS011;4504;48.810;9.172;2023-05-07T06:16:35;114.88;;;4.25;;
8938;SDS011;4504;48.810;9.172;2023-05-07T06:19:04;115.47;;;4.27;;
8938;SDS011;4504;48.810;9.172;2023-05-07T06:21:31;116.30;;;4.40;;
8938;SDS011;4504;48.810;9.172;2023-05-07T06:23:58;117.70;;;4.22;;
8938;SDS011;4504;48.810;9.172;2023-05-07T06:26:25;116.13;;;4.43;;
8938;SDS011;4504;48.810;9.172;2023-05-07T06:28:52;118.07;;;4.47;;
8938;SDS011;4504;48.810;9.172;2023-05-07T06:31:20;115.45;;;4.65;;
8938;SDS011;4504;48.810;9.172;2023-05-07T06:33:58;117.03;;;4.85;;
8938;SDS011;4504;48.810;9.172;2023-05-07T06:36:32;118.75;;;5.22;;
8938;SDS011;4504;48.810;9.172;2023-05-07T06:39:03;115.87;;;4.60;;
8938;SDS011;4504;48.810;9.172;2023-05-07T06:41:30;115.27;;;4.63;;
8938;SDS011;4504;48.810;9.172;2023-05-07T06:44:04;117.17;;;4.83;;
8938;SDS011;4504;48.810;9.172;2023-05-07T06:46:44;115.47;;;4.10;;
8938;SDS011;4504;48.810;9.172;2023-05-07T06:49:12;116.33;;;4.70;;
8938;SDS011;4504;48.810;9.172;2023-05-07T06:51:40;115.65;;;4.38;;
8938;SDS011;4504;48.810;9.172;2023-05-07T06:54:07;115.20;;;4.20;;
8938;SDS011;4504;48.810;9.172;2023-05-07T06:56:36;115.13;;;3.87;;
8938;SDS011;4504;48.810;9.172;2023-05-07T06:59:04;115.85;;;4.75;;
8938;SDS011;4504;48.810;9.172;2023-05-07T07:01:36;115.27;;;4.20;;
8938;SDS011;4504;48.810;9.172;2023-05-07T07:04:05;115.07;;;4.53;;
8938;SDS011;4504;48.810;9.172;2023-05-07T07:06:32;114.00;;;3.63;;
8938;SDS011;4504;48.810;9.172;2023-05-07T07:09:03;113.70;;;3.97;;
8938;SDS011;4504;48.810;9.172;2023-05-07T07:11:30;115.70;;;4.13;;
8938;SDS011;4504;48.810;9.172;2023-05-07T07:13:57;113.80;;;3.80;;
8938;SDS011;4504;48.810;9.172;2023-05-07T07:16:25;114.33;;;4.40;;
8938;SDS011;4504;48.810;9.172;2023-05-07T07:18:52;115.27;;;4.30;;
8938;SDS011;4504;48.810;9.172;2023-05-07T07:21:21;113.70;;;3.97;;
8938;SDS011;4504;48.810;9.172;2023-05-07T07:23:48;113.67;;;3.63;;
8938;SDS011;4504;48.810;9.172;2023-05-07T07:26:16;112.27;;;3.93;;
8938;SDS011;4504;48.810;9.172;2023-05-07T07:28:44;113.30;;;3.97;;
8938;SDS011;4504;48.810;9.172;2023-05-07T07:31:15;111.70;;;4.17;;
8938;SDS011;4504;48.810;9.172;2023-05-07T07:33:42;114.77;;;3.97;;
8938;SDS011;4504;48.810;9.172;2023-05-07T07:36:09;113.40;;;3.77;;
8938;SDS011;4504;48.810;9.172;2023-05-07T07:38:38;113.67;;;4.10;;
8938;SDS011;4504;48.810;9.172;2023-05-07T07:41:07;113.23;;;3.80;;
8938;SDS011;4504;48.810;9.172;2023-05-07T07:43:34;111.33;;;3.63;;
8938;SDS011;4504;48.810;9.172;2023-05-07T07:46:02;112.03;;;3.93;;
8938;SDS011;4504;48.810;9.172;2023-05-07T07:48:30;111.97;;;3.70;;
8938;SDS011;4504;48.810;9.172;2023-05-07T07:50:58;112.37;;;3.87;;
8938;SDS011;4504;48.810;9.172;2023-05-07T07:53:25;111.07;;;3.30;;
8938;SDS011;4504;48.810;9.172;2023-05-07T07:55:53;111.67;;;3.50;;
8938;SDS011;4504;48.810;9.172;2023-05-07T07:58:23;111.47;;;3.83;;
8938;SDS011;4504;48.810;9.172;2023-05-07T08:00:50;110.03;;;3.40;;
8938;SDS011;4504;48.810;9.172;2023-05-07T08:03:17;110.40;;;3.43;;
8938;SDS011;4504;48.810;9.172;2023-05-07T08:05:48;108.60;;;3.20;;
8938;SDS011;4504;48.810;9.172;2023-05-07T08:08:16;109.57;;;3.10;;
8938;SDS011;4504;48.810;9.172;2023-05-07T08:10:43;110.47;;;3.23;;
8938;SDS011;4504;48.810;9.172;2023-05-07T08:13:19;110.30;;;3.80;;
8938;SDS011;4504;48.810;9.172;2023-05-07T08:15:46;108.87;;;2.90;;
8938;SDS011;4504;48.810;9.172;2023-05-07T08:18:14;109.67;;;3.37;;
8938;SDS011;4504;48.810;9.172;2023-05-07T08:20:42;114.57;;;3.73;;
8938;SDS011;4504;48.810;9.172;2023-05-07T08:23:13;111.37;;;3.53;;
8938;SDS011;4504;48.810;9.172;2023-05-07T08:25:42;111.90;;;3.33;;
8938;SDS011;4504;48.810;9.172;2023-05-07T08:28:09;110.37;;;3.80;;
8938;SDS011;4504;48.810;9.172;2023-05-07T08:30:39;109.37;;;3.30;;
8938;SDS011;4504;48.810;9.172;2023-05-07T08:33:06;117.17;;;8.70;;
8938;SDS011;4504;48.810;9.172;2023-05-07T08:35:36;111.87;;;4.00;;
8938;SDS011;4504;48.810;9.172;2023-05-07T08:38:04;110.27;;;4.00;;
8938;SDS011;4504;48.810;9.172;2023-05-07T08:40:33;112.07;;;3.47;;
8938;SDS011;4504;48.810;9.172;2023-05-07T08:43:06;109.10;;;3.23;;
8938;SDS011;4504;48.810;9.172;2023-05-07T08:45:35;110.27;;;3.17;;
8938;SDS011;4504;48.810;9.172;2023-05-07T08:48:08;107.97;;;2.90;;
8938;SDS011;4504;48.810;9.172;2023-05-07T08:50:40;110.50;;;3.60;;
8938;SDS011;4504;48.810;9.172;2023-05-07T08:53:09;110.07;;;3.43;;
8938;SDS011;4504;48.810;9.172;2023-05-07T08:55:37;109.50;;;3.40;;
8938;SDS011;4504;48.810;9.172;2023-05-07T08:58:04;110.97;;;3.23;;
8938;SDS011;4504;48.810;9.172;2023-05-07T09:00:34;109.63;;;3.00;;
8938;SDS011;4504;48.810;9.172;2023-05-07T09:03:04;109.10;;;3.07;;
8938;SDS011;4504;48.810;9.172;2023-05-07T09:05:31;109.20;;;2.73;;
8938;SDS011;4504;48.810;9.172;2023-05-07T09:07:59;109.47;;;3.20;;
8938;SDS011;4504;48.810;9.172;2023-05-07T09:10:26;108.70;;;3.07;;
8938;SDS011;4504;48.810;9.172;2023-05-07T09:12:53;109.67;;;3.03;;
8938;SDS011;4504;48.810;9.172;2023-05-07T09:15:20;107.37;;;3.10;;
8938;SDS011;4504;48.810;9.172;2023-05-07T09:17:47;109.77;;;4.63;;
8938;SDS011;4504;48.810;9.172;2023-05-07T09:20:16;108.17;;;2.93;;
8938;SDS011;4504;48.810;9.172;2023-05-07T09:22:43;109.20;;;2.90;;
8938;SDS011;4504;48.810;9.172;2023-05-07T09:25:13;110.20;;;3.63;;
8938;SDS011;4504;48.810;9.172;2023-05-07T09:27:41;110.80;;;3.10;;
8938;SDS011;4504;48.810;9.172;2023-05-07T09:30:09;109.80;;;3.23;;
8938;SDS011;4504;48.810;9.172;2023-05-07T09:32:37;108.50;;;3.00;;
8938;SDS011;4504;48.810;9.172;2023-05-07T09:35:05;108.57;;;2.70;;
8938;SDS011;4504;48.810;9.172;2023-05-07T09:37:41;107.07;;;2.70;;
8938;SDS011;4504;48.810;9.172;2023-05-07T09:40:09;107.50;;;2.80;;
8938;SDS011;4504;48.810;9.172;2023-05-07T09:42:47;106.43;;;2.80;;
8938;SDS011;4504;48.810;9.172;2023-05-07T09:47:08;110.60;;;3.67;;
8938;SDS011;4504;48.810;9.172;2023-05-07T09:49:42;107.80;;;3.37;;
8938;SDS011;4504;48.810;9.172;2023-05-07T09:52:16;110.57;;;3.57;;
8938;SDS011;4504;48.810;9.172;2023-05-07T09:54:48;107.97;;;3.10;;
8938;SDS011;4504;48.810;9.172;2023-05-07T09:57:18;106.77;;;2.40;;
8938;SDS011;4504;48.810;9.172;2023-05-07T09:59:50;106.67;;;2.60;;
8938;SDS011;4504;48.810;9.172;2023-05-07T10:02:21;108.03;;;2.70;;
8938;SDS011;4504;48.810;9.172;2023-05-07T10:04:52;108.50;;;3.13;;
8938;SDS011;4504;48.810;9.172;2023-05-07T10:07:24;107.67;;;2.93;;
8938;SDS011;4504;48.810;9.172;2023-05-07T10:09:55;109.10;;;3.47;;
8938;SDS011;4504;48.810;9.172;2023-05-07T10:12:29;107.40;;;3.00;;
8938;SDS011;4504;48.810;9.172;2023-05-07T10:15:03;108.67;;;2.57;;
8938;SDS011;4504;48.810;9.172;2023-05-07T10:17:34;106.57;;;3.00;;
8938;SDS011;4504;48.810;9.172;2023-05-07T10:20:02;106.80;;;2.63;;
8938;SDS011;4504;48.810;9.172;2023-05-07T10:22:30;106.67;;;2.70;;
8938;SDS011;4504;48.810;9.172;2023-05-07T10:25:03;105.67;;;2.30;;
8938;SDS011;4504;48.810;9.172;2023-05-07T10:27:36;105.43;;;2.27;;
8938;SDS011;4504;48.810;9.172;2023-05-07T10:30:07;105.10;;;2.20;;
8938;SDS011;4504;48.810;9.172;2023-05-07T10:32:42;106.37;;;2.40;;
8938;SDS011;4504;48.810;9.172;2023-05-07T10:35:21;105.03;;;2.10;;
8938;SDS011;4504;48.810;9.172;2023-05-07T10:37:50;104.60;;;2.40;;
8938;SDS011;4504;48.810;9.172;2023-05-07T10:40:19;103.70;;;2.30;;
8938;SDS011;4504;48.810;9.172;2023-05-07T10:42:55;104.50;;;2.30;;
8938;SDS011;4504;48.810;9.172;2023-05-07T10:45:23;106.07;;;2.77;;
8938;SDS011;4504;48.810;9.172;2023-05-07T10:48:06;101.77;;;1.93;;
8938;SDS011;4504;48.810;9.172;2023-05-07T10:50:38;104.77;;;2.70;;
8938;SDS011;4504;48.810;9.172;2023-05-07T10:53:22;105.03;;;2.33;;
8938;SDS011;4504;48.810;9.172;2023-05-07T11:02:21;105.33;;;2.33;;
8938;SDS011;4504;48.810;9.172;2023-05-07T11:08:12;104.47;;;2.00;;
8938;SDS011;4504;48.810;9.172;2023-05-07T11:10:49;104.07;;;1.80;;
8938;SDS011;4504;48.810;9.172;2023-05-07T11:13:41;104.30;;;2.17;;
8938;SDS011;4504;48.810;9.172;2023-05-07T11:16:18;105.17;;;2.03;;
8938;SDS011;4504;48.810;9.172;2023-05-07T11:18:48;103.97;;;2.00;;
8938;SDS011;4504;48.810;9.172;2023-05-07T11:21:32;103.70;;;1.97;;
8938;SDS011;4504;48.810;9.172;2023-05-07T11:24:19;103.73;;;2.43;;
8938;SDS011;4504;48.810;9.172;2023-05-07T11:26:57;104.17;;;2.30;;
8938;SDS011;4504;48.810;9.172;2023-05-07T11:29:26;107.00;;;2.43;;
8938;SDS011;4504;48.810;9.172;2023-05-07T11:31:59;105.63;;;2.27;;
8938;SDS011;4504;48.810;9.172;2023-05-07T11:34:31;105.47;;;2.23;;
8938;SDS011;4504;48.810;9.172;2023-05-07T11:37:00;105.40;;;2.20;;
8938;SDS011;4504;48.810;9.172;2023-05-07T11:39:46;104.97;;;2.40;;
8938;SDS011;4504;48.810;9.172;2023-05-07T11:44:55;106.17;;;2.70;;
8938;SDS011;4504;48.810;9.172;2023-05-07T11:47:22;106.57;;;2.20;;
8938;SDS011;4504;48.810;9.172;2023-05-07T11:49:51;105.87;;;2.50;;
8938;SDS011;4504;48.810;9.172;2023-05-07T11:52:20;106.07;;;2.57;;
8938;SDS011;4504;48.810;9.172;2023-05-07T11:54:48;106.30;;;2.50;;
8938;SDS011;4504;48.810;9.172;2023-05-07T11:57:16;105.80;;;2.50;;
8938;SDS011;4504;48.810;9.172;2023-05-07T11:59:43;105.80;;;2.70;;
8938;SDS011;4504;48.810;9.172;2023-05-07T12:02:10;107.20;;;2.40;;
8938;SDS011;4504;48.810;9.172;2023-05-07T12:04:39;108.30;;;3.23;;
8938;SDS011;4504;48.810;9.172;2023-05-07T12:07:10;115.40;;;3.37;;
8938;SDS011;4504;48.810;9.172;2023-05-07T12:09:40;107.63;;;2.70;;
8938;SDS011;4504;48.810;9.172;2023-05-07T12:12:07;110.00;;;2.63;;
8938;SDS011;4504;48.810;9.172;2023-05-07T12:14:37;108.70;;;2.93;;
8938;SDS011;4504;48.810;9.172;2023-05-07T12:17:05;110.00;;;3.13;;
8938;SDS011;4504;48.810;9.172;2023-05-07T12:19:33;107.00;;;2.33;;
8938;SDS011;4504;48.810;9.172;2023-05-07T12:22:01;115.23;;;4.77;;
8938;SDS011;4504;48.810;9.172;2023-05-07T12:24:30;123.73;;;3.60;;
8938;SDS011;4504;48.810;9.172;2023-05-07T12:27:11;111.83;;;3.07;;
8938;SDS011;4504;48.810;9.172;2023-05-07T12:29:37;110.17;;;3.20;;
8938;SDS011;4504;48.810;9.172;2023-05-07T12:32:06;110.97;;;3.17;;
8938;SDS011;4504;48.810;9.172;2023-05-07T12:34:33;110.60;;;3.07;;
8938;SDS011;4504;48.810;9.172;2023-05-07T12:37:01;112.37;;;3.80;;
8938;SDS011;4504;48.810;9.172;2023-05-07T12:39:28;113.83;;;3.47;;
8938;SDS011;4504;48.810;9.172;2023-05-07T12:41:58;111.70;;;3.50;;
8938;SDS011;4504;48.810;9.172;2023-05-07T12:44:28;112.07;;;3.47;;
8938;SDS011;4504;48.810;9.172;2023-05-07T12:46:56;112.87;;;3.40;;
8938;SDS011;4504;48.810;9.172;2023-05-07T12:49:25;114.07;;;3.77;;
8938;SDS011;4504;48.810;9.172;2023-05-07T12:51:52;116.97;;;3.90;;
8938;SDS011;4504;48.810;9.172;2023-05-07T12:54:29;113.70;;;3.90;;
8938;SDS011;4504;48.810;9.172;2023-05-07T12:57:02;115.07;;;3.70;;
8938;SDS011;4504;48.810;9.172;2023-05-07T12:59:33;112.97;;;3.53;;
8938;SDS011;4504;48.810;9.172;2023-05-07T13:02:00;112.80;;;3.30;;
8938;SDS011;4504;48.810;9.172;2023-05-07T13:04:27;113.80;;;3.27;;
8938;SDS011;4504;48.810;9.172;2023-05-07T13:06:54;114.30;;;3.63;;
8938;SDS011;4504;48.810;9.172;2023-05-07T13:09:21;120.60;;;3.70;;
8938;SDS011;4504;48.810;9.172;2023-05-07T13:11:48;114.90;;;3.23;;
8938;SDS011;4504;48.810;9.172;2023-05-07T13:14:16;114.90;;;3.87;;
8938;SDS011;4504;48.810;9.172;2023-05-07T13:16:46;116.00;;;3.93;;
8938;SDS011;4504;48.810;9.172;2023-05-07T13:19:12;114.77;;;3.33;;
8938;SDS011;4504;48.810;9.172;2023-05-07T13:21:40;115.00;;;3.70;;
8938;SDS011;4504;48.810;9.172;2023-05-07T13:24:07;113.63;;;3.63;;
8938;SDS011;4504;48.810;9.172;2023-05-07T13:26:34;113.78;;;3.58;;
8938;SDS011;4504;48.810;9.172;2023-05-07T13:29:01;115.65;;;3.83;;
8938;SDS011;4504;48.810;9.172;2023-05-07T13:31:29;115.78;;;3.72;;
8938;SDS011;4504;48.810;9.172;2023-05-07T13:33:57;115.53;;;3.30;;
8938;SDS011;4504;48.810;9.172;2023-05-07T13:36:24;116.50;;;3.97;;
8938;SDS011;4504;48.810;9.172;2023-05-07T13:38:51;116.05;;;3.50;;
8938;SDS011;4504;48.810;9.172;2023-05-07T13:41:18;115.87;;;3.50;;
8938;SDS011;4504;48.810;9.172;2023-05-07T13:43:45;114.93;;;3.40;;
8938;SDS011;4504;48.810;9.172;2023-05-07T13:46:12;115.43;;;4.00;;
8938;SDS011;4504;48.810;9.172;2023-05-07T13:48:40;116.78;;;3.85;;
8938;SDS011;4504;48.810;9.172;2023-05-07T13:51:07;115.47;;;3.65;;
8938;SDS011;4504;48.810;9.172;2023-05-07T13:53:34;114.47;;;3.75;;
8938;SDS011;4504;48.810;9.172;2023-05-07T13:56:01;114.90;;;3.57;;
8938;SDS011;4504;48.810;9.172;2023-05-07T13:58:29;116.07;;;3.60;;
8938;SDS011;4504;48.810;9.172;2023-05-07T14:00:56;115.80;;;3.73;;
8938;SDS011;4504;48.810;9.172;2023-05-07T14:03:23;114.38;;;3.35;;
8938;SDS011;4504;48.810;9.172;2023-05-07T14:05:52;115.97;;;3.60;;
8938;SDS011;4504;48.810;9.172;2023-05-07T14:08:19;115.40;;;3.83;;
8938;SDS011;4504;48.810;9.172;2023-05-07T14:10:45;115.00;;;3.23;;
8938;SDS011;4504;48.810;9.172;2023-05-07T14:13:12;115.00;;;3.73;;
8938;SDS011;4504;48.810;9.172;2023-05-07T14:15:39;118.13;;;4.13;;
8938;SDS011;4504;48.810;9.172;2023-05-07T14:18:08;114.40;;;3.40;;
8938;SDS011;4504;48.810;9.172;2023-05-07T14:20:35;118.43;;;3.90;;
8938;SDS011;4504;48.810;9.172;2023-05-07T14:23:04;114.43;;;3.35;;
8938;SDS011;4504;48.810;9.172;2023-05-07T14:25:31;113.60;;;2.90;;
8938;SDS011;4504;48.810;9.172;2023-05-07T14:27:58;114.23;;;3.60;;
8938;SDS011;4504;48.810;9.172;2023-05-07T14:30:25;115.55;;;3.63;;
8938;SDS011;4504;48.810;9.172;2023-05-07T14:32:52;115.82;;;3.67;;
8938;SDS011;4504;48.810;9.172;2023-05-07T14:35:19;116.88;;;4.72;;
8938;SDS011;4504;48.810;9.172;2023-05-07T14:37:46;116.18;;;3.80;;
8938;SDS011;4504;48.810;9.172;2023-05-07T14:40:15;117.00;;;4.03;;
8938;SDS011;4504;48.810;9.172;2023-05-07T14:42:42;117.57;;;4.85;;
8938;SDS011;4504;48.810;9.172;2023-05-07T14:45:09;114.50;;;3.30;;
8938;SDS011;4504;48.810;9.172;2023-05-07T14:47:36;115.43;;;3.77;;
8938;SDS011;4504;48.810;9.172;2023-05-07T14:50:04;116.00;;;3.43;;
8938;SDS011;4504;48.810;9.172;2023-05-07T14:52:31;114.00;;;3.90;;
8938;SDS011;4504;48.810;9.172;2023-05-07T14:54:58;115.90;;;3.70;;
8938;SDS011;4504;48.810;9.172;2023-05-07T14:57:26;114.53;;;3.50;;
8938;SDS011;4504;48.810;9.172;2023-05-07T14:59:53;116.07;;;4.10;;
8938;SDS011;4504;48.810;9.172;2023-05-07T15:02:20;113.80;;;3.50;;
8938;SDS011;4504;48.810;9.172;2023-05-07T15:04:47;114.97;;;3.80;;
8938;SDS011;4504;48.810;9.172;2023-05-07T15:07:15;114.87;;;3.50;;
8938;SDS011;4504;48.810;9.172;2023-05-07T15:09:42;118.30;;;3.10;;
8938;SDS011;4504;48.810;9.172;2023-05-07T15:12:09;112.47;;;3.57;;